Time;durP1;ratioP1;P1;durP2;ratioP2;P2;SDS_P1;SDS_P2;PMS_P1;PMS_P2;Temp;Humidity;BMP_temperature;BMP_pressure;BME280_temperature;BME280_humidity;BME280_pressure;Samples;Min_cycle;Max_cycle;Signal;HPM_P1;HPM_P2
2022/07/25 00:00:13;;;;;;;4.63;4.30;;;;;;;;;;4995849;28;20725;-56
2022/07/25 00:02:40;;;;;;;5.30;4.80;;;;;;;;;;4995652;28;20654;-56
2022/07/25 00:05:06;;;;;;;9.03;4.60;;;;;;;;;;4995755;28;20237;-56
2022/07/25 00:07:34;;;;;;;6.57;4.90;;;;;;;;;;4995839;28;20203;-56
2022/07/25 00:10:00;;;;;;;8.10;4.77;;;;;;;;;;4995636;28;20206;-56
2022/07/25 00:12:26;;;;;;;6.23;4.57;;;;;;;;;;4995625;28;20209;-56
2022/07/25 00:14:52;;;;;;;5.03;4.50;;;;;;;;;;4995641;28;20297;-56
2022/07/25 00:17:18;;;;;;;5.40;4.87;;;;;;;;;;4995539;28;20194;-56
2022/07/25 00:19:44;;;;;;;4.67;4.20;;;;;;;;;;4995451;28;20687;-56
2022/07/25 00:22:10;;;;;;;4.90;4.40;;;;;;;;;;4995499;28;20284;-56
2022/07/25 00:24:37;;;;;;;4.67;4.27;;;;;;;;;;4995140;28;20634;-57
2022/07/25 00:27:03;;;;;;;6.57;4.30;;;;;;;;;;4995439;28;20205;-56
2022/07/25 00:29:29;;;;;;;5.20;4.70;;;;;;;;;;4995265;28;20401;-56
2022/07/25 00:31:55;;;;;;;5.73;4.60;;;;;;;;;;4995106;28;20296;-56
2022/07/25 00:34:21;;;;;;;6.10;4.80;;;;;;;;;;4994984;28;20237;-56
2022/07/25 00:36:47;;;;;;;6.10;4.63;;;;;;;;;;4995240;28;20229;-56
2022/07/25 00:39:13;;;;;;;5.70;4.93;;;;;;;;;;4995184;28;20250;-56
2022/07/25 00:41:40;;;;;;;8.17;4.80;;;;;;;;;;4995028;28;20473;-56
2022/07/25 00:44:06;;;;;;;7.23;4.80;;;;;;;;;;4994903;28;20752;-56
2022/07/25 00:46:33;;;;;;;7.63;4.80;;;;;;;;;;4994679;28;20329;-56
2022/07/25 00:48:58;;;;;;;5.63;4.50;;;;;;;;;;4994955;28;20724;-56
2022/07/25 00:51:25;;;;;;;8.70;5.00;;;;;;;;;;4994835;28;20199;-56
2022/07/25 00:53:51;;;;;;;8.40;4.83;;;;;;;;;;4994936;28;20211;-56
2022/07/25 00:56:17;;;;;;;5.30;4.80;;;;;;;;;;4994811;28;20238;-56
2022/07/25 00:58:44;;;;;;;5.53;4.90;;;;;;;;;;4994645;28;20215;-56
2022/07/25 01:01:10;;;;;;;9.87;4.60;;;;;;;;;;4994767;28;20280;-56
2022/07/25 01:03:36;;;;;;;7.20;4.60;;;;;;;;;;4994698;28;20657;-56
2022/07/25 01:06:02;;;;;;;6.50;5.07;;;;;;;;;;4994566;28;20263;-56
2022/07/25 01:08:28;;;;;;;4.83;4.43;;;;;;;;;;4994632;28;20205;-56
2022/07/25 01:10:54;;;;;;;5.57;4.70;;;;;;;;;;4994600;28;20202;-56
2022/07/25 01:13:20;;;;;;;5.20;4.70;;;;;;;;;;4994331;28;20208;-57
2022/07/25 01:15:48;;;;;;;6.10;4.80;;;;;;;;;;4994535;28;20190;-56
2022/07/25 01:18:14;;;;;;;5.63;5.13;;;;;;;;;;4994583;28;20593;-56
2022/07/25 01:20:41;;;;;;;8.87;4.90;;;;;;;;;;4994289;28;20199;-56
2022/07/25 01:23:07;;;;;;;7.53;5.10;;;;;;;;;;4994213;28;20206;-56
2022/07/25 01:25:33;;;;;;;6.40;5.13;;;;;;;;;;4994080;28;20644;-56
2022/07/25 01:27:59;;;;;;;5.30;4.80;;;;;;;;;;4994092;28;20206;-56
2022/07/25 01:30:25;;;;;;;7.23;5.37;;;;;;;;;;4994141;28;20209;-56
2022/07/25 01:32:51;;;;;;;5.67;5.17;;;;;;;;;;4994089;28;20679;-56
2022/07/25 01:35:17;;;;;;;6.40;5.03;;;;;;;;;;4994233;28;20190;-56
2022/07/25 01:37:44;;;;;;;10.33;5.83;;;;;;;;;;4994032;28;20212;-56
2022/07/25 01:40:11;;;;;;;6.20;4.67;;;;;;;;;;4993992;28;20210;-56
2022/07/25 01:42:37;;;;;;;5.20;4.67;;;;;;;;;;4993852;28;20249;-56
2022/07/25 01:45:03;;;;;;;7.80;5.63;;;;;;;;;;4993758;28;20602;-57
2022/07/25 01:47:29;;;;;;;5.47;4.70;;;;;;;;;;4993741;28;20330;-56
2022/07/25 01:49:55;;;;;;;4.83;4.17;;;;;;;;;;4993575;28;20298;-56
2022/07/25 01:52:21;;;;;;;6.83;4.93;;;;;;;;;;4993735;28;20212;-56
2022/07/25 01:54:49;;;;;;;4.93;4.43;;;;;;;;;;4993548;28;20198;-56
2022/07/25 01:57:15;;;;;;;5.93;4.90;;;;;;;;;;4993720;28;20206;-56
2022/07/25 01:59:41;;;;;;;4.97;4.50;;;;;;;;;;4993543;28;20381;-56
2022/07/25 02:02:07;;;;;;;6.53;4.90;;;;;;;;;;4993655;28;20255;-56
2022/07/25 02:04:33;;;;;;;5.80;4.47;;;;;;;;;;4993417;28;20208;-57
2022/07/25 02:06:59;;;;;;;7.77;4.73;;;;;;;;;;4991867;28;20648;-56
2022/07/25 02:09:25;;;;;;;5.33;4.53;;;;;;;;;;4993419;28;20202;-56
2022/07/25 02:11:53;;;;;;;5.93;4.83;;;;;;;;;;4993307;28;20209;-56
2022/07/25 02:14:19;;;;;;;4.83;4.30;;;;;;;;;;4993408;28;20282;-56
2022/07/25 02:16:45;;;;;;;5.17;4.63;;;;;;;;;;4993328;28;20233;-56
2022/07/25 02:19:11;;;;;;;5.13;4.60;;;;;;;;;;4991168;28;20237;-56
2022/07/25 02:21:37;;;;;;;5.30;4.80;;;;;;;;;;4993122;28;20451;-56
2022/07/25 02:24:03;;;;;;;5.77;4.90;;;;;;;;;;4993228;28;20252;-56
2022/07/25 02:26:29;;;;;;;6.17;4.57;;;;;;;;;;4993222;28;20233;-56
2022/07/25 02:28:56;;;;;;;6.87;4.70;;;;;;;;;;4993080;28;20198;-56
2022/07/25 02:31:22;;;;;;;5.60;4.27;;;;;;;;;;4993087;28;20226;-56
2022/07/25 02:33:48;;;;;;;6.40;5.00;;;;;;;;;;4991285;28;20206;-56
2022/07/25 02:36:14;;;;;;;5.97;4.70;;;;;;;;;;4993258;28;20691;-56
2022/07/25 02:38:40;;;;;;;6.87;4.60;;;;;;;;;;4992823;28;20224;-56
2022/07/25 02:41:07;;;;;;;5.20;4.77;;;;;;;;;;4991181;28;20221;-56
2022/07/25 02:43:33;;;;;;;6.57;4.73;;;;;;;;;;4992865;28;20210;-56
2022/07/25 02:46:00;;;;;;;4.50;4.10;;;;;;;;;;4991538;28;20781;-56
2022/07/25 02:48:26;;;;;;;4.73;4.03;;;;;;;;;;4992847;28;20199;-56
2022/07/25 02:50:52;;;;;;;4.90;4.50;;;;;;;;;;4992718;28;20287;-56
2022/07/25 02:53:18;;;;;;;5.10;4.60;;;;;;;;;;4991605;28;20438;-56
2022/07/25 02:55:44;;;;;;;5.90;4.57;;;;;;;;;;4991521;28;20434;-56
2022/07/25 02:58:10;;;;;;;5.05;4.57;;;;;;;;;;4991526;28;20407;-56
2022/07/25 03:00:36;;;;;;;5.47;4.32;;;;;;;;;;4991149;28;20769;-56
2022/07/25 03:03:04;;;;;;;6.30;4.60;;;;;;;;;;4991585;28;20418;-56
2022/07/25 03:05:29;;;;;;;5.60;4.57;;;;;;;;;;4991410;28;20414;-56
2022/07/25 03:07:55;;;;;;;7.38;4.47;;;;;;;;;;4991305;28;20501;-56
2022/07/25 03:10:21;;;;;;;4.80;4.40;;;;;;;;;;4990899;28;20465;-56
2022/07/25 03:12:47;;;;;;;5.57;4.13;;;;;;;;;;4991260;28;20821;-56
2022/07/25 03:15:14;;;;;;;4.47;3.90;;;;;;;;;;4991467;28;20410;-56
2022/07/25 03:17:41;;;;;;;7.47;4.47;;;;;;;;;;4991262;28;20411;-56
2022/07/25 03:20:09;;;;;;;4.90;4.38;;;;;;;;;;4991207;28;20414;-56
2022/07/25 03:22:35;;;;;;;4.78;4.18;;;;;;;;;;4991147;28;20438;-56
2022/07/25 03:25:01;;;;;;;4.75;3.88;;;;;;;;;;4990974;28;20418;-56
2022/07/25 03:27:27;;;;;;;5.90;4.38;;;;;;;;;;4991211;28;20406;-56
2022/07/25 03:29:53;;;;;;;4.68;4.20;;;;;;;;;;4991230;28;20426;-56
2022/07/25 03:32:19;;;;;;;4.68;3.90;;;;;;;;;;4995106;28;20441;-57
2022/07/25 03:34:45;;;;;;;4.57;4.18;;;;;;;;;;4993425;28;20769;-56
2022/07/25 03:37:12;;;;;;;5.38;3.95;;;;;;;;;;4995151;28;20390;-56
2022/07/25 03:39:38;;;;;;;5.50;4.03;;;;;;;;;;4994890;28;20417;-56
2022/07/25 03:42:04;;;;;;;4.97;4.10;;;;;;;;;;4995009;28;20406;-56
2022/07/25 03:44:31;;;;;;;4.63;4.03;;;;;;;;;;4994661;28;20409;-56
2022/07/25 03:46:57;;;;;;;5.13;3.92;;;;;;;;;;4994119;28;20422;-56
2022/07/25 03:49:23;;;;;;;4.93;3.70;;;;;;;;;;4994555;28;20841;-56
2022/07/25 03:51:49;;;;;;;5.90;4.20;;;;;;;;;;4994466;28;20489;-56
2022/07/25 03:54:16;;;;;;;4.63;3.75;;;;;;;;;;4994617;28;20415;-56
2022/07/25 03:56:43;;;;;;;5.40;4.03;;;;;;;;;;4994693;28;20461;-56
2022/07/25 03:59:10;;;;;;;4.53;4.05;;;;;;;;;;4994358;28;20796;-56
2022/07/25 04:01:36;;;;;;;4.38;3.60;;;;;;;;;;4994283;28;20410;-56
2022/07/25 04:04:03;;;;;;;4.38;3.60;;;;;;;;;;4994246;28;20433;-56
2022/07/25 04:06:29;;;;;;;4.25;3.85;;;;;;;;;;4994333;28;20445;-56
2022/07/25 04:08:57;;;;;;;6.60;3.90;;;;;;;;;;4994075;28;20501;-56
2022/07/25 04:11:24;;;;;;;4.05;3.67;;;;;;;;;;4993996;28;20668;-56
2022/07/25 04:13:50;;;;;;;4.68;3.80;;;;;;;;;;4993984;28;20925;-56
2022/07/25 04:16:16;;;;;;;4.43;3.83;;;;;;;;;;4994233;28;20761;-56
2022/07/25 04:18:42;;;;;;;4.20;3.75;;;;;;;;;;4993965;28;20461;-55
2022/07/25 04:21:09;;;;;;;4.18;3.78;;;;;;;;;;4994075;28;20398;-56
2022/07/25 04:23:35;;;;;;;4.38;3.85;;;;;;;;;;4993738;28;20770;-55
2022/07/25 04:26:01;;;;;;;5.28;3.78;;;;;;;;;;4993906;28;20418;-55
2022/07/25 04:28:28;;;;;;;4.28;3.58;;;;;;;;;;4994017;28;20410;-56
2022/07/25 04:30:55;;;;;;;4.95;3.63;;;;;;;;;;4993834;28;20422;-56
2022/07/25 04:33:21;;;;;;;6.23;3.50;;;;;;;;;;4993752;28;20966;-55
2022/07/25 04:35:47;;;;;;;7.78;3.80;;;;;;;;;;4993835;28;20401;-56
2022/07/25 04:38:13;;;;;;;4.55;3.92;;;;;;;;;;4993814;28;20445;-56
2022/07/25 04:40:40;;;;;;;4.72;3.92;;;;;;;;;;4993039;28;20453;-56
2022/07/25 04:43:07;;;;;;;4.55;3.95;;;;;;;;;;4993550;28;20402;-56
2022/07/25 04:45:34;;;;;;;4.25;3.85;;;;;;;;;;4993576;28;20446;-56
2022/07/25 04:48:00;;;;;;;4.43;3.70;;;;;;;;;;4993352;28;20426;-56
2022/07/25 04:50:26;;;;;;;5.95;3.58;;;;;;;;;;4993598;28;20400;-56
2022/07/25 04:52:52;;;;;;;4.68;3.75;;;;;;;;;;4993355;28;20402;-56
2022/07/25 04:55:19;;;;;;;4.78;3.97;;;;;;;;;;4993425;28;20461;-56
2022/07/25 04:57:46;;;;;;;4.45;3.58;;;;;;;;;;4993516;28;20415;-56
2022/07/25 05:00:12;;;;;;;6.70;4.00;;;;;;;;;;4993432;28;20950;-56
2022/07/25 05:02:40;;;;;;;4.70;3.70;;;;;;;;;;4993265;28;20417;-56
2022/07/25 05:05:07;;;;;;;4.35;3.95;;;;;;;;;;4993138;28;20426;-59
2022/07/25 05:07:33;;;;;;;3.80;3.50;;;;;;;;;;4993318;28;20486;-56
2022/07/25 05:09:59;;;;;;;3.80;3.40;;;;;;;;;;4993114;28;20466;-56
2022/07/25 05:12:25;;;;;;;4.30;3.90;;;;;;;;;;4992750;28;20441;-56
2022/07/25 05:14:52;;;;;;;6.78;3.55;;;;;;;;;;4992834;28;20418;-55
2022/07/25 05:17:19;;;;;;;5.25;3.70;;;;;;;;;;4992771;28;20402;-55
2022/07/25 05:19:46;;;;;;;3.95;3.55;;;;;;;;;;4992971;28;20897;-56
2022/07/25 05:22:12;;;;;;;4.13;3.72;;;;;;;;;;4992933;28;20419;-56
2022/07/25 05:24:38;;;;;;;5.70;3.75;;;;;;;;;;4992466;28;20461;-55
2022/07/25 05:27:04;;;;;;;4.93;3.70;;;;;;;;;;4992758;28;20399;-56
2022/07/25 05:29:30;;;;;;;4.28;3.88;;;;;;;;;;4992942;28;20414;-56
2022/07/25 05:31:57;;;;;;;4.00;3.60;;;;;;;;;;4992704;28;20469;-56
2022/07/25 05:34:23;;;;;;;4.95;3.67;;;;;;;;;;4992608;28;20497;-56
2022/07/25 05:36:50;;;;;;;4.25;3.53;;;;;;;;;;4992403;28;20501;-56
2022/07/25 05:39:16;;;;;;;3.92;3.60;;;;;;;;;;4992674;28;20820;-56
2022/07/25 05:41:42;;;;;;;4.15;3.50;;;;;;;;;;4992496;28;20920;-56
2022/07/25 05:44:08;;;;;;;4.00;3.60;;;;;;;;;;4992479;28;20408;-56
2022/07/25 05:46:35;;;;;;;5.95;3.70;;;;;;;;;;4992158;28;20477;-56
2022/07/25 05:49:01;;;;;;;4.83;3.87;;;;;;;;;;4992514;28;20462;-56
2022/07/25 05:51:27;;;;;;;4.20;3.80;;;;;;;;;;4992347;28;20889;-55
2022/07/25 05:53:54;;;;;;;4.20;3.47;;;;;;;;;;4991345;28;20912;-55
2022/07/25 05:56:20;;;;;;;5.18;4.03;;;;;;;;;;4992237;28;20406;-55
2022/07/25 05:58:46;;;;;;;5.68;3.80;;;;;;;;;;4992313;28;20765;-55
2022/07/25 06:01:13;;;;;;;5.27;3.60;;;;;;;;;;4992145;28;20934;-56
2022/07/25 06:03:39;;;;;;;4.33;3.93;;;;;;;;;;4993419;28;20193;-55
2022/07/25 06:06:07;;;;;;;5.70;3.90;;;;;;;;;;4993159;28;20330;-56
2022/07/25 06:08:33;;;;;;;5.13;3.87;;;;;;;;;;4993103;28;20578;-57
2022/07/25 06:11:03;;;;;;;3.90;3.50;;;;;;;;;;4993298;28;20198;-57
2022/07/25 06:13:29;;;;;;;4.10;3.70;;;;;;;;;;4993370;28;20217;-56
2022/07/25 06:15:55;;;;;;;5.13;3.85;;;;;;;;;;4991701;28;20403;-56
2022/07/25 06:18:21;;;;;;;4.40;4.00;;;;;;;;;;4991858;28;20746;-57
2022/07/25 06:20:48;;;;;;;5.37;3.60;;;;;;;;;;4993135;28;20201;-54
2022/07/25 06:23:14;;;;;;;4.07;3.67;;;;;;;;;;4992952;28;20196;-55
2022/07/25 06:25:40;;;;;;;4.57;3.60;;;;;;;;;;4993106;28;20249;-56
2022/07/25 06:28:07;;;;;;;5.43;3.83;;;;;;;;;;4992783;28;20237;-55
2022/07/25 06:30:33;;;;;;;5.77;3.73;;;;;;;;;;4992933;28;20207;-54
2022/07/25 06:32:59;;;;;;;4.63;4.20;;;;;;;;;;4992857;28;20224;-54
2022/07/25 06:35:25;;;;;;;4.40;4.00;;;;;;;;;;4992615;28;20199;-54
2022/07/25 06:37:51;;;;;;;5.00;3.70;;;;;;;;;;4992822;28;20240;-56
2022/07/25 06:40:17;;;;;;;5.83;3.60;;;;;;;;;;4991119;28;20207;-54
2022/07/25 06:42:48;;;;;;;4.53;3.87;;;;;;;;;;4992548;28;20194;-55
2022/07/25 06:45:15;;;;;;;6.20;3.90;;;;;;;;;;4992168;28;20263;-54
2022/07/25 06:47:42;;;;;;;6.87;3.80;;;;;;;;;;4992022;28;20241;-54
2022/07/25 06:50:09;;;;;;;4.33;3.93;;;;;;;;;;4992107;28;20201;-55
2022/07/25 06:52:35;;;;;;;5.37;3.60;;;;;;;;;;4992363;28;20252;-55
2022/07/25 06:55:01;;;;;;;5.17;4.10;;;;;;;;;;4992478;28;20217;-55
2022/07/25 06:57:27;;;;;;;4.40;4.00;;;;;;;;;;4992355;28;20194;-55
2022/07/25 06:59:53;;;;;;;4.60;4.20;;;;;;;;;;4992197;28;20225;-55
2022/07/25 07:02:21;;;;;;;6.33;3.97;;;;;;;;;;4992030;28;20205;-55
2022/07/25 07:04:47;;;;;;;4.77;4.23;;;;;;;;;;4992084;28;20224;-55
2022/07/25 07:07:13;;;;;;;5.63;4.10;;;;;;;;;;4992123;28;20199;-55
2022/07/25 07:09:39;;;;;;;4.27;3.87;;;;;;;;;;4992047;28;20691;-55
2022/07/25 07:12:05;;;;;;;4.37;4.07;;;;;;;;;;4992015;28;20199;-55
2022/07/25 07:14:31;;;;;;;4.37;3.97;;;;;;;;;;4992142;28;20573;-55
2022/07/25 07:16:57;;;;;;;4.20;3.80;;;;;;;;;;4992067;28;20194;-55
2022/07/25 07:19:24;;;;;;;4.43;4.03;;;;;;;;;;4992081;28;20199;-55
2022/07/25 07:21:50;;;;;;;4.60;4.20;;;;;;;;;;4992016;28;20203;-55
2022/07/25 07:24:17;;;;;;;4.50;4.00;;;;;;;;;;4992142;28;20198;-55
2022/07/25 07:26:43;;;;;;;4.20;3.80;;;;;;;;;;4991917;28;20223;-55
2022/07/25 07:29:09;;;;;;;5.07;4.23;;;;;;;;;;4992310;28;20222;-54
2022/07/25 07:31:35;;;;;;;5.03;3.70;;;;;;;;;;4988602;28;20298;-56
2022/07/25 07:34:01;;;;;;;6.97;3.97;;;;;;;;;;4991801;28;20218;-55
2022/07/25 07:36:29;;;;;;;4.33;3.93;;;;;;;;;;4992329;28;20267;-55
2022/07/25 07:38:55;;;;;;;5.13;3.80;;;;;;;;;;4992027;28;20205;-55
2022/07/25 07:41:21;;;;;;;4.93;4.50;;;;;;;;;;4992160;28;20196;-55
2022/07/25 07:43:47;;;;;;;4.53;4.13;;;;;;;;;;4996619;28;20207;-55
2022/07/25 07:46:13;;;;;;;4.30;3.90;;;;;;;;;;5011022;28;20279;-55
2022/07/25 07:48:39;;;;;;;4.50;4.10;;;;;;;;;;5011840;28;20287;-55
2022/07/25 07:51:05;;;;;;;8.30;7.60;;;;;;;;;;5011489;28;20235;-55
2022/07/25 07:56:18;;;;;;;4.87;3.60;;;;;;;;;;5011738;28;20216;-55
2022/07/25 07:58:44;;;;;;;5.47;4.10;;;;;;;;;;5011476;28;20220;-55
2022/07/25 08:01:10;;;;;;;4.17;3.70;;;;;;;;;;5011417;28;20205;-55
2022/07/25 08:03:36;;;;;;;4.30;3.77;;;;;;;;;;5011673;28;20200;-55
2022/07/25 08:06:03;;;;;;;4.70;4.07;;;;;;;;;;5011533;28;20232;-55
2022/07/25 08:08:29;;;;;;;4.60;4.20;;;;;;;;;;5011856;28;20205;-55
2022/07/25 08:10:57;;;;;;;5.10;4.57;;;;;;;;;;5011607;28;20208;-55
2022/07/25 08:13:23;;;;;;;5.93;4.03;;;;;;;;;;5011524;28;20260;-55
2022/07/25 08:15:51;;;;;;;5.63;4.17;;;;;;;;;;5011708;28;20208;-55
2022/07/25 08:18:17;;;;;;;4.83;4.43;;;;;;;;;;5015083;28;20264;-55
2022/07/25 08:20:43;;;;;;;6.47;4.20;;;;;;;;;;5015342;28;20237;-55
2022/07/25 08:23:10;;;;;;;4.30;4.00;;;;;;;;;;5014843;28;20207;-55
2022/07/25 08:25:36;;;;;;;4.40;4.00;;;;;;;;;;5014921;28;20220;-55
2022/07/25 08:28:05;;;;;;;4.53;4.10;;;;;;;;;;5015061;28;20260;-55
2022/07/25 08:30:31;;;;;;;7.07;4.30;;;;;;;;;;5015137;28;20286;-55
2022/07/25 08:32:59;;;;;;;4.30;4.00;;;;;;;;;;5014837;28;20199;-56
2022/07/25 08:35:25;;;;;;;4.43;4.00;;;;;;;;;;5014719;28;20206;-55
2022/07/25 08:37:52;;;;;;;7.17;4.30;;;;;;;;;;5014769;28;20232;-56
2022/07/25 08:40:19;;;;;;;5.53;4.53;;;;;;;;;;5014718;28;20218;-55
2022/07/25 08:42:45;;;;;;;4.40;4.00;;;;;;;;;;5014847;28;20202;-55
2022/07/25 08:45:15;;;;;;;5.97;4.20;;;;;;;;;;5014293;28;20234;-55
2022/07/25 08:47:41;;;;;;;9.93;4.70;;;;;;;;;;5014416;28;20241;-55
2022/07/25 08:50:08;;;;;;;4.67;4.30;;;;;;;;;;5014491;28;20194;-56
2022/07/25 08:52:35;;;;;;;5.10;4.60;;;;;;;;;;5014391;28;20572;-56
2022/07/25 08:55:01;;;;;;;5.83;3.80;;;;;;;;;;5014220;28;20208;-55
2022/07/25 08:57:27;;;;;;;4.87;4.10;;;;;;;;;;5014227;28;20232;-55
2022/07/25 08:59:56;;;;;;;4.57;4.13;;;;;;;;;;5014012;28;20204;-56
2022/07/25 09:02:23;;;;;;;5.13;4.63;;;;;;;;;;5005574;28;20831;-56
2022/07/25 09:04:49;;;;;;;5.47;4.37;;;;;;;;;;4994729;28;20214;-55
2022/07/25 09:07:15;;;;;;;4.70;4.30;;;;;;;;;;4994357;28;20646;-55
2022/07/25 09:09:43;;;;;;;4.83;4.17;;;;;;;;;;4993927;28;20695;-55
2022/07/25 09:12:09;;;;;;;4.80;3.80;;;;;;;;;;4993906;28;20214;-55
2022/07/25 09:14:44;;;;;;;4.37;4.03;;;;;;;;;;4994294;28;20200;-54
2022/07/25 09:17:10;;;;;;;4.23;3.83;;;;;;;;;;4994159;28;20200;-54
2022/07/25 09:19:37;;;;;;;4.50;4.13;;;;;;;;;;4994262;28;20212;-54
2022/07/25 09:22:05;;;;;;;5.00;4.33;;;;;;;;;;4993828;28;20200;-55
2022/07/25 09:24:31;;;;;;;4.30;3.90;;;;;;;;;;4994283;28;20205;-56
2022/07/25 09:26:58;;;;;;;4.43;4.13;;;;;;;;;;4994076;28;20686;-54
2022/07/25 09:29:25;;;;;;;4.37;3.97;;;;;;;;;;4993041;28;20230;-55
2022/07/25 09:31:51;;;;;;;5.47;4.30;;;;;;;;;;4993970;28;20213;-56
2022/07/25 09:34:29;;;;;;;4.87;4.47;;;;;;;;;;4993685;28;20236;-55
2022/07/25 09:36:57;;;;;;;6.93;4.07;;;;;;;;;;4992025;28;20200;-54
2022/07/25 09:39:31;;;;;;;4.83;4.27;;;;;;;;;;4993490;28;20217;-54
2022/07/25 09:41:57;;;;;;;5.00;4.10;;;;;;;;;;4994286;28;20207;-54
2022/07/25 09:44:29;;;;;;;5.53;4.80;;;;;;;;;;4993499;28;20567;-55
2022/07/25 09:46:55;;;;;;;4.23;3.93;;;;;;;;;;4992850;28;20612;-55
2022/07/25 09:49:21;;;;;;;5.40;4.33;;;;;;;;;;4993469;28;20236;-55
2022/07/25 09:51:47;;;;;;;5.13;4.60;;;;;;;;;;4993522;28;20209;-54
2022/07/25 09:54:15;;;;;;;8.50;4.53;;;;;;;;;;4993263;28;20293;-54
2022/07/25 09:56:41;;;;;;;5.90;4.50;;;;;;;;;;4993416;28;20253;-54
2022/07/25 09:59:07;;;;;;;4.83;4.43;;;;;;;;;;4993273;28;20190;-55
2022/07/25 10:01:36;;;;;;;8.57;4.40;;;;;;;;;;4993037;28;20280;-55
2022/07/25 10:04:08;;;;;;;4.93;4.47;;;;;;;;;;4993283;28;20241;-55
2022/07/25 10:06:37;;;;;;;5.00;4.50;;;;;;;;;;4993347;28;20235;-54
2022/07/25 10:09:03;;;;;;;4.50;4.10;;;;;;;;;;4993085;28;20206;-54
2022/07/25 10:11:30;;;;;;;4.90;4.50;;;;;;;;;;4993121;28;20228;-56
2022/07/25 10:13:56;;;;;;;4.90;4.50;;;;;;;;;;4993092;28;20209;-55
2022/07/25 10:16:23;;;;;;;4.93;4.43;;;;;;;;;;4992849;28;20207;-54
2022/07/25 10:18:50;;;;;;;7.80;4.60;;;;;;;;;;4993108;28;20231;-54
2022/07/25 10:21:17;;;;;;;4.90;4.50;;;;;;;;;;4993014;28;20196;-54
2022/07/25 10:23:43;;;;;;;4.80;4.30;;;;;;;;;;4991622;28;20249;-54
2022/07/25 10:26:10;;;;;;;5.37;4.87;;;;;;;;;;4993116;28;20223;-55
2022/07/25 10:28:42;;;;;;;5.30;4.80;;;;;;;;;;4993317;28;20203;-53
2022/07/25 10:31:15;;;;;;;5.70;4.80;;;;;;;;;;4993122;28;20207;-55
2022/07/25 10:33:41;;;;;;;5.67;4.80;;;;;;;;;;4993113;28;20230;-55
2022/07/25 10:36:09;;;;;;;5.90;4.67;;;;;;;;;;4992968;28;20204;-55
2022/07/25 10:38:38;;;;;;;5.10;4.60;;;;;;;;;;4992892;28;20236;-55
2022/07/25 10:41:07;;;;;;;9.63;4.90;;;;;;;;;;4992554;28;20561;-55
2022/07/25 10:43:36;;;;;;;5.40;4.80;;;;;;;;;;4992748;28;20214;-55
2022/07/25 10:46:11;;;;;;;5.33;4.50;;;;;;;;;;4992742;28;20252;-55
2022/07/25 10:48:37;;;;;;;6.63;4.60;;;;;;;;;;4992996;28;20212;-55
2022/07/25 10:51:05;;;;;;;5.10;4.60;;;;;;;;;;4992804;28;20201;-54
2022/07/25 10:53:32;;;;;;;4.90;4.47;;;;;;;;;;4992712;28;20616;-55
2022/07/25 10:55:59;;;;;;;6.23;4.50;;;;;;;;;;4992763;28;20197;-55
2022/07/25 10:58:25;;;;;;;7.63;5.40;;;;;;;;;;4992279;28;20205;-55
2022/07/25 11:00:51;;;;;;;5.60;5.10;;;;;;;;;;4992571;28;20614;-55
2022/07/25 11:03:19;;;;;;;6.37;4.90;;;;;;;;;;4992217;28;20749;-55
2022/07/25 11:05:45;;;;;;;6.90;4.90;;;;;;;;;;4992674;28;20316;-56
2022/07/25 11:08:11;;;;;;;5.43;4.93;;;;;;;;;;4992235;28;20563;-56
2022/07/25 11:10:37;;;;;;;5.10;4.60;;;;;;;;;;4992404;28;20280;-56
2022/07/25 11:13:04;;;;;;;6.00;5.40;;;;;;;;;;4992594;28;20206;-55
2022/07/25 11:15:31;;;;;;;5.10;4.70;;;;;;;;;;4992394;28;20218;-55
2022/07/25 11:17:57;;;;;;;5.10;4.60;;;;;;;;;;4992312;28;20203;-55
2022/07/25 11:20:24;;;;;;;5.13;4.63;;;;;;;;;;4992244;28;20264;-55
2022/07/25 11:22:52;;;;;;;5.23;4.83;;;;;;;;;;4992363;28;20662;-55
2022/07/25 11:25:19;;;;;;;5.10;4.70;;;;;;;;;;4992179;28;20198;-55
2022/07/25 11:27:49;;;;;;;4.47;4.07;;;;;;;;;;4992497;28;20282;-56
2022/07/25 11:30:16;;;;;;;8.63;4.57;;;;;;;;;;4990571;28;20200;-55
2022/07/25 11:32:43;;;;;;;4.77;4.27;;;;;;;;;;4992344;28;20306;-55
2022/07/25 11:35:10;;;;;;;7.47;4.90;;;;;;;;;;4992314;28;20205;-55
2022/07/25 11:37:38;;;;;;;4.90;4.40;;;;;;;;;;4992200;28;20207;-55
2022/07/25 11:40:04;;;;;;;7.03;4.30;;;;;;;;;;4992310;28;20201;-55
2022/07/25 11:42:38;;;;;;;7.00;4.57;;;;;;;;;;4992306;28;20237;-56
2022/07/25 11:45:15;;;;;;;8.53;4.90;;;;;;;;;;4991937;28;20622;-56
2022/07/25 11:47:41;;;;;;;6.03;4.53;;;;;;;;;;4991685;28;20243;-56
2022/07/25 11:50:13;;;;;;;5.10;4.70;;;;;;;;;;4991974;28;20255;-56
2022/07/25 11:52:41;;;;;;;4.87;4.47;;;;;;;;;;4993452;28;20226;-55
2022/07/25 11:55:08;;;;;;;5.63;4.60;;;;;;;;;;4995891;28;20619;-56
2022/07/25 11:57:36;;;;;;;6.43;4.83;;;;;;;;;;4995758;28;20186;-55
2022/07/25 12:00:04;;;;;;;4.60;4.30;;;;;;;;;;4995884;28;20202;-56
2022/07/25 12:02:30;;;;;;;7.47;5.10;;;;;;;;;;4995726;28;20203;-56
2022/07/25 12:04:57;;;;;;;5.03;4.60;;;;;;;;;;4995897;28;20201;-55
2022/07/25 12:07:34;;;;;;;5.50;5.00;;;;;;;;;;4995609;28;20283;-55
2022/07/25 12:10:01;;;;;;;6.50;4.60;;;;;;;;;;4996035;28;20199;-56
2022/07/25 12:12:27;;;;;;;8.87;5.00;;;;;;;;;;4995670;28;20213;-55
2022/07/25 12:14:53;;;;;;;5.13;4.30;;;;;;;;;;4995550;28;20217;-55
2022/07/25 12:17:19;;;;;;;4.50;4.10;;;;;;;;;;4995102;28;20198;-55
2022/07/25 12:19:46;;;;;;;5.20;4.37;;;;;;;;;;4995612;28;20211;-55
2022/07/25 12:22:12;;;;;;;4.90;4.27;;;;;;;;;;4995340;28;20219;-55
2022/07/25 12:24:38;;;;;;;11.77;4.13;;;;;;;;;;4995338;28;20430;-56
2022/07/25 12:27:05;;;;;;;4.40;4.00;;;;;;;;;;4995369;28;20593;-55
2022/07/25 12:29:31;;;;;;;4.97;4.47;;;;;;;;;;4995330;28;20223;-56
2022/07/25 12:31:57;;;;;;;4.87;4.00;;;;;;;;;;4995326;28;20233;-55
2022/07/25 12:34:23;;;;;;;4.63;4.00;;;;;;;;;;4995229;28;20206;-55
2022/07/25 12:36:49;;;;;;;4.93;4.07;;;;;;;;;;4995355;28;20724;-55
2022/07/25 12:39:15;;;;;;;4.90;4.40;;;;;;;;;;4995136;28;20220;-56
2022/07/25 12:41:41;;;;;;;5.40;4.57;;;;;;;;;;4995068;28;20210;-55
2022/07/25 12:44:09;;;;;;;6.00;4.17;;;;;;;;;;4995109;28;20227;-55
2022/07/25 12:46:37;;;;;;;4.83;4.00;;;;;;;;;;4994776;28;20264;-55
2022/07/25 12:49:03;;;;;;;4.53;3.93;;;;;;;;;;4995087;28;20205;-56
2022/07/25 12:51:29;;;;;;;4.80;3.97;;;;;;;;;;4994929;28;20210;-55
2022/07/25 12:53:55;;;;;;;4.50;4.10;;;;;;;;;;4994967;28;20206;-55
2022/07/25 12:56:21;;;;;;;5.00;4.30;;;;;;;;;;4994490;28;20280;-56
2022/07/25 12:58:49;;;;;;;4.43;4.03;;;;;;;;;;4994805;28;20299;-55
2022/07/25 13:01:16;;;;;;;5.17;4.50;;;;;;;;;;4994905;28;20208;-56
2022/07/25 13:03:42;;;;;;;4.60;4.20;;;;;;;;;;4994476;28;20696;-55
2022/07/25 13:06:08;;;;;;;4.93;4.50;;;;;;;;;;4994679;28;20323;-55
2022/07/25 13:08:36;;;;;;;8.17;4.43;;;;;;;;;;4994287;28;20218;-55
2022/07/25 13:11:02;;;;;;;5.37;4.13;;;;;;;;;;4994650;28;20238;-55
2022/07/25 13:13:28;;;;;;;4.63;4.23;;;;;;;;;;4994554;28;20244;-56
2022/07/25 13:15:54;;;;;;;6.60;4.40;;;;;;;;;;4994446;28;20244;-55
2022/07/25 13:18:21;;;;;;;4.83;4.43;;;;;;;;;;4994012;28;20227;-55
2022/07/25 13:20:47;;;;;;;4.70;4.17;;;;;;;;;;4994390;28;20202;-55
2022/07/25 13:23:13;;;;;;;5.17;4.67;;;;;;;;;;4994278;28;20197;-55
2022/07/25 13:25:39;;;;;;;5.30;4.20;;;;;;;;;;4994161;28;20687;-55
2022/07/25 13:28:05;;;;;;;5.40;4.30;;;;;;;;;;4994237;28;20203;-55
2022/07/25 13:30:31;;;;;;;5.00;4.50;;;;;;;;;;4994134;28;20202;-54
2022/07/25 13:32:57;;;;;;;5.93;4.50;;;;;;;;;;4994439;28;20247;-54
2022/07/25 13:35:25;;;;;;;5.10;4.70;;;;;;;;;;4993956;28;20228;-54
2022/07/25 13:37:51;;;;;;;4.90;4.50;;;;;;;;;;4993887;28;20202;-55
2022/07/25 13:40:17;;;;;;;5.60;4.70;;;;;;;;;;4994189;28;20259;-55
2022/07/25 13:42:43;;;;;;;5.00;4.17;;;;;;;;;;4994079;28;20288;-55
2022/07/25 13:45:09;;;;;;;5.60;4.90;;;;;;;;;;4993995;28;20395;-55
2022/07/25 13:47:35;;;;;;;5.13;4.63;;;;;;;;;;4993447;28;20652;-55
2022/07/25 13:50:01;;;;;;;7.27;4.53;;;;;;;;;;4994033;28;20233;-55
2022/07/25 13:52:28;;;;;;;5.70;4.50;;;;;;;;;;4993651;28;20201;-55
2022/07/25 13:54:54;;;;;;;5.87;4.30;;;;;;;;;;4993809;28;20209;-54
2022/07/25 13:57:20;;;;;;;5.27;4.87;;;;;;;;;;4993390;28;20201;-55
2022/07/25 13:59:46;;;;;;;6.00;4.77;;;;;;;;;;4993558;28;20205;-55
2022/07/25 14:02:12;;;;;;;9.33;4.70;;;;;;;;;;4993429;28;20228;-54
2022/07/25 14:04:38;;;;;;;5.20;4.70;;;;;;;;;;4993310;28;20205;-53
2022/07/25 14:07:04;;;;;;;5.40;4.63;;;;;;;;;;4993014;28;20230;-55
2022/07/25 14:09:32;;;;;;;4.77;4.17;;;;;;;;;;4993575;28;20721;-55
2022/07/25 14:11:58;;;;;;;5.90;4.63;;;;;;;;;;4993417;28;20294;-55
2022/07/25 14:14:24;;;;;;;4.87;4.47;;;;;;;;;;4992400;28;20287;-55
2022/07/25 14:16:50;;;;;;;5.87;4.47;;;;;;;;;;4992983;28;20203;-55
2022/07/25 14:19:16;;;;;;;6.90;4.73;;;;;;;;;;4993139;28;20205;-55
2022/07/25 14:21:42;;;;;;;5.53;5.03;;;;;;;;;;4993026;28;20540;-55
2022/07/25 14:24:09;;;;;;;5.30;4.80;;;;;;;;;;4993169;28;20209;-55
2022/07/25 14:26:37;;;;;;;5.03;4.63;;;;;;;;;;4992557;28;20252;-55
2022/07/25 14:29:03;;;;;;;7.13;5.40;;;;;;;;;;4992931;28;20218;-55
2022/07/25 14:31:30;;;;;;;6.00;5.40;;;;;;;;;;4992726;28;20695;-55
2022/07/25 14:33:56;;;;;;;7.30;5.60;;;;;;;;;;4992885;28;20207;-55
2022/07/25 14:36:22;;;;;;;9.87;5.90;;;;;;;;;;4992788;28;20302;-55
2022/07/25 14:38:48;;;;;;;8.13;6.20;;;;;;;;;;4992569;28;20223;-56
2022/07/25 14:41:15;;;;;;;9.30;5.73;;;;;;;;;;4992820;28;20229;-55